createdAt,value
2022-11-28T00:00:58.544Z,2.80
2022-11-28T00:03:00.708Z,2.70
2022-11-28T00:05:02.592Z,2.70
2022-11-28T00:07:04.483Z,2.70
2022-11-28T00:09:07.389Z,2.70
2022-11-28T00:11:12.071Z,2.70
2022-11-28T00:13:14.016Z,2.70
2022-11-28T00:15:15.856Z,2.70
2022-11-28T00:17:17.574Z,2.70
2022-11-28T00:19:19.353Z,2.70
2022-11-28T00:21:21.824Z,2.60
2022-11-28T00:23:23.607Z,2.70
2022-11-28T00:25:25.474Z,2.60
2022-11-28T00:27:27.218Z,2.60
2022-11-28T00:29:29.018Z,2.60
2022-11-28T00:31:33.744Z,2.70
2022-11-28T00:33:35.521Z,2.60
2022-11-28T00:35:37.262Z,2.60
2022-11-28T00:37:38.994Z,2.50
2022-11-28T00:39:40.709Z,2.50
2022-11-28T00:41:43.266Z,2.50
2022-11-28T00:43:45.549Z,2.50
2022-11-28T00:45:47.339Z,2.50
2022-11-28T00:47:49.208Z,2.50
2022-11-28T00:49:50.938Z,2.50
2022-11-28T00:51:52.736Z,2.50
2022-11-28T00:53:55.748Z,2.50
2022-11-28T00:55:57.444Z,2.50
2022-11-28T00:57:59.162Z,2.50
2022-11-28T01:00:00.909Z,2.60
2022-11-28T01:02:02.764Z,2.50
2022-11-28T01:04:07.360Z,2.50
2022-11-28T01:06:10.164Z,2.50
2022-11-28T01:08:11.940Z,2.50
2022-11-28T01:10:13.864Z,2.50
2022-11-28T01:12:15.792Z,2.40
2022-11-28T01:14:20.535Z,2.50
2022-11-28T01:16:22.652Z,2.50
2022-11-28T01:18:24.462Z,2.50
2022-11-28T01:20:26.172Z,2.50
2022-11-28T01:22:28.022Z,2.40
2022-11-28T01:24:29.709Z,2.40
2022-11-28T01:26:32.007Z,2.50
2022-11-28T01:28:34.331Z,2.40
2022-11-28T01:30:36.141Z,2.40
2022-11-28T01:32:37.947Z,2.40
2022-11-28T01:34:39.900Z,2.40
2022-11-28T01:36:41.870Z,2.40
2022-11-28T01:38:44.131Z,2.40
2022-11-28T01:40:46.882Z,2.40
2022-11-28T01:42:48.598Z,2.40
2022-11-28T01:44:50.259Z,2.40
2022-11-28T01:46:52.071Z,2.40
2022-11-28T01:48:55.601Z,2.40
2022-11-28T01:51:00.978Z,2.30
2022-11-28T01:53:08.225Z,2.40
2022-11-28T01:55:12.675Z,2.40
2022-11-28T01:57:18.386Z,2.30
2022-11-28T01:59:23.689Z,2.30
2022-11-28T02:01:26.252Z,2.30
2022-11-28T02:03:30.808Z,2.30
2022-11-28T02:05:33.540Z,2.30
2022-11-28T02:07:37.116Z,2.30
2022-11-28T02:09:38.917Z,2.30
2022-11-28T02:11:52.507Z,2.30
2022-11-28T02:14:20.022Z,2.30
2022-11-28T02:16:33.744Z,2.30
2022-11-28T02:18:59.457Z,2.30
2022-11-28T02:21:26.318Z,2.30
2022-11-28T02:23:55.800Z,2.30
2022-11-28T02:26:34.758Z,2.30
2022-11-28T02:28:47.001Z,2.30
2022-11-28T02:30:48.659Z,2.30
2022-11-28T02:32:59.561Z,2.30
2022-11-28T02:35:29.055Z,2.30
2022-11-28T02:37:54.067Z,2.30
2022-11-28T02:40:16.032Z,2.30
2022-11-28T02:42:28.562Z,2.30
2022-11-28T02:44:30.290Z,2.30
2022-11-28T02:46:37.955Z,2.30
2022-11-28T02:48:53.222Z,2.30
2022-11-28T02:51:16.659Z,2.40
2022-11-28T02:53:22.879Z,2.40
2022-11-28T02:55:24.865Z,2.40
2022-11-28T02:57:42.696Z,2.40
2022-11-28T02:59:48.225Z,2.40
2022-11-28T03:01:49.978Z,2.50
2022-11-28T03:04:02.890Z,2.40
2022-11-28T03:06:10.816Z,2.40
2022-11-28T03:08:12.512Z,2.40
2022-11-28T03:10:51.845Z,2.40
2022-11-28T03:13:00.200Z,2.40
2022-11-28T03:15:08.782Z,2.40
2022-11-28T03:17:29.120Z,2.40
2022-11-28T03:19:42.670Z,2.40
2022-11-28T03:22:00.632Z,2.40
2022-11-28T03:24:24.892Z,2.30
2022-11-28T03:26:38.088Z,2.40
2022-11-28T03:28:58.016Z,2.40
2022-11-28T03:31:02.611Z,2.30
2022-11-28T03:33:05.718Z,2.30
2022-11-28T03:35:15.792Z,2.30
2022-11-28T03:37:24.014Z,2.30
2022-11-28T03:39:30.835Z,2.30
2022-11-28T03:41:45.746Z,2.30
2022-11-28T03:43:52.302Z,2.30
2022-11-28T03:45:58.307Z,2.30
2022-11-28T03:48:08.281Z,2.30
2022-11-28T03:50:17.513Z,2.30
2022-11-28T03:52:27.377Z,2.30
2022-11-28T03:54:46.576Z,2.30
2022-11-28T03:57:15.226Z,2.30
2022-11-28T03:59:22.412Z,2.30
2022-11-28T04:01:36.679Z,2.30
2022-11-28T04:03:38.434Z,2.30
2022-11-28T04:05:55.386Z,2.30
2022-11-28T04:08:18.893Z,2.30
2022-11-28T04:10:44.702Z,2.30
2022-11-28T04:12:56.980Z,2.30
2022-11-28T04:15:08.434Z,2.30
2022-11-28T04:17:19.683Z,2.30
2022-11-28T04:19:31.049Z,2.30
2022-11-28T04:21:43.635Z,2.30
2022-11-28T04:23:48.005Z,2.30
2022-11-28T04:25:58.129Z,2.30
2022-11-28T04:28:07.376Z,2.30
2022-11-28T04:30:11.144Z,2.30
2022-11-28T04:32:15.808Z,2.40
2022-11-28T04:34:20.378Z,2.40
2022-11-28T04:36:24.587Z,2.40
2022-11-28T04:38:29.715Z,2.40
2022-11-28T04:40:37.144Z,2.40
2022-11-28T04:42:53.339Z,2.40
2022-11-28T04:45:11.027Z,2.40
2022-11-28T04:47:12.960Z,2.50
2022-11-28T04:49:15.090Z,2.40
2022-11-28T04:51:21.412Z,2.50
2022-11-28T04:54:04.652Z,2.50
2022-11-28T04:56:18.675Z,2.50
2022-11-28T04:58:31.397Z,2.50
2022-11-28T05:00:36.459Z,2.50
2022-11-28T05:02:40.327Z,2.60
2022-11-28T05:04:44.475Z,2.50
2022-11-28T05:06:47.954Z,2.50
2022-11-28T05:08:49.842Z,2.40
2022-11-28T05:10:51.541Z,2.40
2022-11-28T05:12:53.347Z,2.50
2022-11-28T05:14:55.093Z,2.50
2022-11-28T05:16:56.794Z,2.50
2022-11-28T05:18:58.500Z,2.50
2022-11-28T05:21:01.469Z,2.50
2022-11-28T05:23:03.250Z,2.50
2022-11-28T05:25:05.938Z,2.50
2022-11-28T05:27:07.899Z,2.50
2022-11-28T05:29:09.698Z,2.50
2022-11-28T05:31:12.344Z,2.60
2022-11-28T05:33:14.013Z,2.60
2022-11-28T05:35:15.900Z,2.50
2022-11-28T05:37:17.735Z,2.50
2022-11-28T05:39:19.491Z,2.40
2022-11-28T05:41:26.422Z,2.40
2022-11-28T05:43:28.558Z,2.30
2022-11-28T05:45:30.795Z,2.30
2022-11-28T05:47:33.465Z,2.20
2022-11-28T05:49:35.465Z,2.20
2022-11-28T05:51:37.216Z,2.20
2022-11-28T05:53:38.997Z,2.30
2022-11-28T05:55:41.257Z,2.20
2022-11-28T05:57:42.965Z,2.30
2022-11-28T05:59:45.182Z,2.30
2022-11-28T06:01:47.121Z,2.30
2022-11-28T06:03:48.968Z,2.30
2022-11-28T06:05:50.766Z,2.40
2022-11-28T06:07:52.642Z,2.40
2022-11-28T06:09:54.457Z,2.40
2022-11-28T06:11:56.169Z,2.40
2022-11-28T06:13:58.106Z,2.50
2022-11-28T06:15:59.856Z,2.50
2022-11-28T06:18:01.558Z,2.50
2022-11-28T06:20:04.931Z,2.50
2022-11-28T06:22:06.758Z,2.50
2022-11-28T06:24:10.710Z,2.50
2022-11-28T06:26:16.055Z,2.60
2022-11-28T06:28:17.794Z,2.60
2022-11-28T06:30:19.575Z,2.60
2022-11-28T06:32:22.283Z,2.60
2022-11-28T06:34:24.447Z,2.60
2022-11-28T06:36:26.875Z,2.70
2022-11-28T06:38:29.125Z,2.60
2022-11-28T06:40:31.006Z,2.60
2022-11-28T06:42:34.432Z,2.60
2022-11-28T06:44:36.198Z,2.70
2022-11-28T06:46:38.084Z,2.70
2022-11-28T06:48:39.855Z,2.70
2022-11-28T06:50:41.760Z,2.70
2022-11-28T06:52:43.761Z,2.70
2022-11-28T06:54:45.574Z,2.70
2022-11-28T06:56:47.338Z,2.70
2022-11-28T06:58:55.952Z,2.70
2022-11-28T07:00:57.908Z,2.80
2022-11-28T07:02:59.700Z,2.70
2022-11-28T07:05:01.390Z,2.80
2022-11-28T07:07:03.625Z,2.80
2022-11-28T07:09:05.360Z,2.80
2022-11-28T07:11:11.399Z,2.80
2022-11-28T07:13:13.165Z,2.90
2022-11-28T07:15:15.039Z,2.90
2022-11-28T07:17:17.205Z,2.90
2022-11-28T07:19:23.004Z,2.90
2022-11-28T07:21:25.898Z,2.90
2022-11-28T07:23:27.698Z,2.90
2022-11-28T07:25:29.397Z,2.90
2022-11-28T07:27:31.144Z,2.90
2022-11-28T07:29:36.573Z,3.00
2022-11-28T07:31:38.301Z,3.00
2022-11-28T07:33:41.753Z,3.00
2022-11-28T07:35:43.503Z,3.00
2022-11-28T07:37:45.328Z,3.10
2022-11-28T07:39:47.537Z,3.10
2022-11-28T07:41:49.706Z,3.10
2022-11-28T07:43:55.020Z,3.10
2022-11-28T07:46:01.099Z,3.20
2022-11-28T07:48:03.435Z,3.20
2022-11-28T07:50:06.003Z,3.20
2022-11-28T07:52:07.606Z,3.30
2022-11-28T07:54:09.815Z,3.20
2022-11-28T07:56:15.274Z,3.20
2022-11-28T07:58:17.012Z,3.20
2022-11-28T08:00:19.416Z,3.20
2022-11-28T08:02:21.174Z,3.30
2022-11-28T08:04:23.154Z,3.40
2022-11-28T08:06:28.874Z,3.40
2022-11-28T08:08:30.858Z,3.40
2022-11-28T08:10:32.569Z,3.40
2022-11-28T08:12:34.317Z,3.50
2022-11-28T08:14:36.070Z,3.50
2022-11-28T08:16:41.188Z,3.50
2022-11-28T08:18:43.464Z,3.60
2022-11-28T08:20:45.175Z,3.50
2022-11-28T08:22:47.319Z,3.60
2022-11-28T08:24:49.081Z,3.60
2022-11-28T08:26:50.789Z,3.60
2022-11-28T08:28:54.174Z,3.60
2022-11-28T08:30:56.277Z,3.60
2022-11-28T08:32:58.395Z,3.70
2022-11-28T08:35:00.187Z,3.60
2022-11-28T08:37:02.254Z,3.70
2022-11-28T08:41:26.963Z,3.70
2022-11-28T08:43:28.706Z,3.70
2022-11-28T08:45:30.449Z,3.70
2022-11-28T08:47:32.404Z,3.70
2022-11-28T08:49:37.139Z,3.80
2022-11-28T08:51:38.949Z,3.80
2022-11-28T08:53:43.986Z,3.80
2022-11-28T08:55:48.129Z,3.90
2022-11-28T08:57:49.863Z,3.90
2022-11-28T08:59:51.636Z,3.90
2022-11-28T09:01:54.261Z,3.90
2022-11-28T09:03:56.903Z,3.90
2022-11-28T09:06:04.524Z,4.00
2022-11-28T09:08:10.212Z,4.00
2022-11-28T09:10:13.386Z,4.00
2022-11-28T09:12:15.370Z,4.00
2022-11-28T09:14:17.083Z,4.00
2022-11-28T09:16:19.050Z,4.10
2022-11-28T09:18:20.899Z,4.10
2022-11-28T09:20:22.644Z,4.20
2022-11-28T09:22:24.382Z,4.20
2022-11-28T09:24:26.172Z,4.20
2022-11-28T09:26:28.819Z,4.20
2022-11-28T09:28:30.500Z,4.30
2022-11-28T09:30:33.285Z,4.20
2022-11-28T09:32:36.031Z,4.30
2022-11-28T09:34:37.986Z,4.30
2022-11-28T09:36:39.921Z,4.40
2022-11-28T09:38:41.949Z,4.40
2022-11-28T09:40:44.712Z,4.40
2022-11-28T09:42:47.014Z,4.40
2022-11-28T09:44:52.977Z,4.50
2022-11-28T09:46:59.238Z,4.50
2022-11-28T09:49:07.119Z,4.50
2022-11-28T09:51:28.199Z,4.60
2022-11-28T09:53:50.726Z,4.70
2022-11-28T09:56:11.988Z,4.70
2022-11-28T09:58:39.260Z,4.70
2022-11-28T10:01:23.757Z,4.70
2022-11-28T10:03:31.729Z,4.70
2022-11-28T10:06:07.310Z,4.70
2022-11-28T10:08:27.296Z,4.60
2022-11-28T10:10:55.195Z,4.80
2022-11-28T10:12:59.653Z,4.80
2022-11-28T10:15:26.000Z,4.90
2022-11-28T10:17:45.742Z,4.80
2022-11-28T10:20:12.134Z,4.90
2022-11-28T10:22:22.267Z,4.90
2022-11-28T10:24:39.471Z,4.90
2022-11-28T10:26:46.170Z,5.00
2022-11-28T10:28:51.728Z,5.00
2022-11-28T10:31:12.406Z,5.10
2022-11-28T10:33:36.835Z,5.10
2022-11-28T10:36:02.128Z,5.10
2022-11-28T10:38:11.440Z,5.20
2022-11-28T10:40:38.517Z,5.30
2022-11-28T10:42:48.573Z,5.30
2022-11-28T10:45:05.341Z,5.40
2022-11-28T10:47:15.673Z,5.40
2022-11-28T10:49:39.495Z,5.50
2022-11-28T10:51:56.153Z,5.50
2022-11-28T10:54:10.758Z,5.50
2022-11-28T10:56:18.308Z,5.70
2022-11-28T10:58:30.246Z,5.60
2022-11-28T11:00:33.018Z,5.70
2022-11-28T11:02:54.901Z,5.70
2022-11-28T11:04:56.875Z,5.80
2022-11-28T11:07:29.740Z,5.80
2022-11-28T11:09:31.806Z,5.80
2022-11-28T11:11:37.120Z,5.90
2022-11-28T11:14:00.320Z,6.00
2022-11-28T11:16:05.104Z,6.10
2022-11-28T11:18:35.198Z,6.00
2022-11-28T11:20:40.131Z,6.10
2022-11-28T11:22:54.985Z,6.10
2022-11-28T11:25:17.393Z,6.20
2022-11-28T11:27:21.872Z,6.30
2022-11-28T11:29:35.619Z,6.30
2022-11-28T11:31:44.781Z,6.30
2022-11-28T11:33:47.369Z,6.40
2022-11-28T11:35:49.556Z,6.40
2022-11-28T11:37:51.797Z,6.50
2022-11-28T11:39:58.297Z,6.50
2022-11-28T11:42:00.028Z,6.60
2022-11-28T11:44:36.856Z,6.60
2022-11-28T11:46:51.977Z,6.70
2022-11-28T11:48:53.836Z,6.80
2022-11-28T11:50:55.530Z,6.70
2022-11-28T11:53:15.329Z,6.80
2022-11-28T11:55:17.605Z,6.90
2022-11-28T11:57:37.430Z,6.90
2022-11-28T12:00:02.260Z,6.90
2022-11-28T12:02:19.554Z,7.10
2022-11-28T12:04:45.042Z,7.00
2022-11-28T12:06:52.419Z,7.10
2022-11-28T12:09:14.714Z,7.10
2022-11-28T12:11:32.007Z,7.10
2022-11-28T12:13:34.157Z,7.20
2022-11-28T12:16:03.320Z,7.20
2022-11-28T12:18:40.662Z,7.20
2022-11-28T12:20:53.383Z,7.20
2022-11-28T12:23:24.343Z,7.30
2022-11-28T12:25:28.280Z,7.30
2022-11-28T12:27:54.084Z,7.30
2022-11-28T12:30:38.058Z,7.30
2022-11-28T12:33:04.010Z,7.30
2022-11-28T12:35:30.462Z,7.30
2022-11-28T12:40:55.071Z,7.40
2022-11-28T12:43:47.750Z,7.40
2022-11-28T12:46:02.646Z,7.40
2022-11-28T12:48:04.359Z,7.40
2022-11-28T12:50:20.980Z,7.40
2022-11-28T12:52:57.426Z,7.40
2022-11-28T12:55:17.304Z,7.40
2022-11-28T12:57:27.651Z,7.30
2022-11-28T12:59:32.213Z,7.30
2022-11-28T13:01:53.021Z,7.40
2022-11-28T13:04:12.738Z,7.40
2022-11-28T13:06:32.566Z,7.40
2022-11-28T13:08:58.553Z,7.40
2022-11-28T13:11:26.495Z,7.40
2022-11-28T13:13:50.654Z,7.40
2022-11-28T13:16:23.586Z,7.40
2022-11-28T13:18:48.911Z,7.40
2022-11-28T13:21:14.112Z,7.40
2022-11-28T13:23:28.621Z,7.30
2022-11-28T13:25:32.920Z,7.30
2022-11-28T13:27:43.445Z,7.30
2022-11-28T13:30:16.898Z,7.30
2022-11-28T13:32:37.606Z,7.30
2022-11-28T13:34:40.077Z,7.30
2022-11-28T13:39:25.963Z,7.20
2022-11-28T13:42:09.707Z,7.30
2022-11-28T13:44:09.758Z,7.30
2022-11-28T13:46:11.836Z,7.30
2022-11-28T13:51:19.297Z,7.30
2022-11-28T13:53:24.975Z,7.20
2022-11-28T13:55:47.627Z,7.20
2022-11-28T13:57:49.671Z,7.20
2022-11-28T14:00:04.819Z,7.20
2022-11-28T14:02:22.597Z,7.20
2022-11-28T14:04:25.104Z,7.20
2022-11-28T14:06:30.938Z,7.20
2022-11-28T14:08:39.245Z,7.20
2022-11-28T14:10:58.467Z,7.20
2022-11-28T14:13:35.082Z,7.20
2022-11-28T14:15:45.508Z,7.20
2022-11-28T14:18:54.499Z,7.20
2022-11-28T14:20:50.747Z,7.20
2022-11-28T14:23:10.966Z,7.10
2022-11-28T14:25:24.129Z,7.10
2022-11-28T14:27:30.654Z,7.10
2022-11-28T14:29:41.120Z,7.10
2022-11-28T14:32:06.610Z,7.10
2022-11-28T14:34:48.258Z,7.10
2022-11-28T14:37:10.183Z,7.10
2022-11-28T14:39:33.007Z,7.10
2022-11-28T14:42:06.772Z,7.10
2022-11-28T14:44:46.204Z,7.10
2022-11-28T14:47:35.184Z,7.10
2022-11-28T14:49:36.932Z,7.10
2022-11-28T14:51:48.025Z,7.00
2022-11-28T14:53:50.194Z,7.00
2022-11-28T14:55:52.077Z,7.00
2022-11-28T14:58:03.174Z,7.20
2022-11-28T15:00:13.334Z,7.00
2022-11-28T15:02:34.943Z,7.00
2022-11-28T15:04:39.747Z,7.00
2022-11-28T15:06:42.152Z,7.00
2022-11-28T15:09:08.670Z,7.00
2022-11-28T15:11:58.740Z,7.00
2022-11-28T15:14:03.082Z,6.90
2022-11-28T15:16:09.847Z,6.90
2022-11-28T15:18:12.182Z,6.90
2022-11-28T15:20:28.403Z,6.90
2022-11-28T15:22:30.890Z,6.90
2022-11-28T15:24:37.683Z,6.90
2022-11-28T15:26:39.549Z,7.00
2022-11-28T15:28:41.979Z,7.00
2022-11-28T15:30:49.997Z,7.00
2022-11-28T15:32:59.319Z,7.00
2022-11-28T15:35:09.214Z,6.90
2022-11-28T15:37:19.264Z,6.90
2022-11-28T15:39:41.702Z,6.90
2022-11-28T15:41:46.072Z,6.90
2022-11-28T15:43:47.827Z,6.90
2022-11-28T15:46:01.519Z,6.90
2022-11-28T15:48:04.727Z,6.90
2022-11-28T15:50:20.047Z,6.90
2022-11-28T15:52:21.733Z,6.90
2022-11-28T15:54:41.782Z,6.80
2022-11-28T15:56:57.273Z,6.80
2022-11-28T15:58:59.036Z,6.80
2022-11-28T16:01:19.767Z,6.80
2022-11-28T16:03:26.210Z,6.80
2022-11-28T16:05:28.190Z,6.70
2022-11-28T16:07:30.176Z,6.80
2022-11-28T16:09:35.299Z,6.70
2022-11-28T16:11:37.079Z,6.70
2022-11-28T16:13:40.012Z,6.70
2022-11-28T16:15:49.934Z,6.70
2022-11-28T16:17:55.603Z,6.70
2022-11-28T16:19:58.124Z,6.70
2022-11-28T16:22:09.863Z,6.70
2022-11-28T16:24:48.249Z,6.70
2022-11-28T16:27:33.331Z,6.70
2022-11-28T16:29:36.531Z,6.60
2022-11-28T16:31:38.612Z,6.60
2022-11-28T16:33:44.911Z,6.60
2022-11-28T16:35:46.637Z,6.60
2022-11-28T16:37:48.418Z,6.60
2022-11-28T16:40:14.519Z,6.60
2022-11-28T16:42:17.561Z,6.60
2022-11-28T16:44:23.898Z,6.60
2022-11-28T16:46:30.270Z,6.60
2022-11-28T16:48:38.016Z,6.60
2022-11-28T16:51:10.111Z,6.60
2022-11-28T16:53:52.134Z,6.60
2022-11-28T16:55:53.843Z,6.60
2022-11-28T16:58:07.122Z,6.60
2022-11-28T17:00:09.501Z,6.60
2022-11-28T17:02:38.575Z,6.60
2022-11-28T17:04:40.542Z,6.60
2022-11-28T17:06:42.549Z,6.50
2022-11-28T17:08:44.542Z,6.60
2022-11-28T17:10:46.300Z,6.50
2022-11-28T17:12:48.092Z,6.50
2022-11-28T17:14:50.028Z,6.50
2022-11-28T17:16:51.935Z,6.50
2022-11-28T17:18:54.301Z,6.50
2022-11-28T17:20:56.000Z,6.50
2022-11-28T17:22:59.130Z,6.60
2022-11-28T17:25:01.763Z,6.50
2022-11-28T17:27:03.529Z,6.50
2022-11-28T17:29:05.225Z,6.50
2022-11-28T17:31:07.474Z,6.40
2022-11-28T17:33:15.978Z,6.40
2022-11-28T17:35:22.627Z,6.40
2022-11-28T17:37:24.365Z,6.50
2022-11-28T17:39:27.441Z,6.40
2022-11-28T17:41:29.154Z,6.40
2022-11-28T17:43:35.972Z,6.40
2022-11-28T17:45:40.550Z,6.50
2022-11-28T17:47:42.348Z,6.40
2022-11-28T17:49:46.405Z,6.40
2022-11-28T17:51:49.070Z,6.40
2022-11-28T17:53:50.939Z,6.40
2022-11-28T17:55:59.127Z,6.40
2022-11-28T17:58:00.864Z,6.40
2022-11-28T18:00:05.172Z,6.40
2022-11-28T18:02:07.448Z,6.40
2022-11-28T18:04:09.253Z,6.30
2022-11-28T18:06:18.023Z,6.40
2022-11-28T18:08:22.282Z,6.40
2022-11-28T18:10:24.291Z,6.40
2022-11-28T18:12:26.010Z,6.40
2022-11-28T18:14:27.707Z,6.30
2022-11-28T18:16:30.809Z,6.30
2022-11-28T18:18:33.155Z,6.40
2022-11-28T18:20:36.798Z,6.40
2022-11-28T18:22:38.656Z,6.30
2022-11-28T18:24:40.370Z,6.30
2022-11-28T18:26:42.117Z,6.30
2022-11-28T18:28:43.901Z,6.30
2022-11-28T18:30:47.157Z,6.30
2022-11-28T18:32:48.924Z,6.30
2022-11-28T18:34:50.693Z,6.40
2022-11-28T18:36:58.509Z,6.30
2022-11-28T18:39:03.668Z,6.30
2022-11-28T18:41:07.008Z,6.30
2022-11-28T18:43:08.942Z,6.30
2022-11-28T18:45:11.755Z,6.30
2022-11-28T18:47:13.508Z,6.30
2022-11-28T18:49:16.580Z,6.30
2022-11-28T18:51:21.151Z,6.30
2022-11-28T18:53:22.900Z,6.30
2022-11-28T18:55:24.731Z,6.40
2022-11-28T18:57:31.101Z,6.30
2022-11-28T18:59:32.837Z,6.30
2022-11-28T19:01:35.471Z,6.30
2022-11-28T19:03:37.465Z,6.30
2022-11-28T19:05:42.293Z,6.30
2022-11-28T19:07:44.040Z,6.20
2022-11-28T19:09:46.534Z,6.10
2022-11-28T19:11:48.388Z,6.30
2022-11-28T19:13:53.606Z,6.30
2022-11-28T19:15:55.398Z,6.20
2022-11-28T19:17:57.102Z,6.30
2022-11-28T19:19:58.846Z,6.30
2022-11-28T19:22:00.627Z,6.30
2022-11-28T19:24:03.188Z,6.30
2022-11-28T19:26:08.315Z,6.30
2022-11-28T19:28:10.115Z,6.30
2022-11-28T19:30:13.280Z,6.30
2022-11-28T19:32:16.919Z,6.30
2022-11-28T19:34:19.271Z,6.30
2022-11-28T19:36:21.156Z,6.30
2022-11-28T19:38:22.870Z,6.30
2022-11-28T19:40:24.672Z,6.20
2022-11-28T19:42:26.443Z,6.20
2022-11-28T19:44:29.391Z,6.20
2022-11-28T19:46:35.405Z,6.20
2022-11-28T19:48:39.569Z,6.20
2022-11-28T19:50:49.001Z,6.20
2022-11-28T19:52:50.777Z,6.20
2022-11-28T19:54:52.658Z,6.20
2022-11-28T19:56:54.485Z,6.20
2022-11-28T19:58:56.171Z,6.20
2022-11-28T20:01:15.855Z,6.20
2022-11-28T20:03:18.330Z,6.20
2022-11-28T20:05:20.031Z,6.10
2022-11-28T20:07:21.826Z,6.10
2022-11-28T20:09:23.601Z,6.10
2022-11-28T20:11:31.698Z,6.10
2022-11-28T20:13:33.774Z,6.10
2022-11-28T20:15:38.594Z,6.10
2022-11-28T20:17:40.345Z,6.10
2022-11-28T20:19:42.371Z,6.10
2022-11-28T20:21:44.357Z,6.10
2022-11-28T20:23:51.500Z,6.10
2022-11-28T20:25:53.566Z,6.10
2022-11-28T20:27:55.360Z,6.10
2022-11-28T20:29:57.259Z,6.10
2022-11-28T20:31:59.100Z,6.10
2022-11-28T20:34:01.533Z,6.10
2022-11-28T20:36:08.045Z,6.10
2022-11-28T20:38:09.773Z,6.10
2022-11-28T20:40:12.009Z,6.10
2022-11-28T20:42:13.735Z,6.10
2022-11-28T20:44:15.553Z,6.10
2022-11-28T20:46:22.599Z,6.10
2022-11-28T20:48:24.398Z,6.10
2022-11-28T20:50:26.081Z,6.10
2022-11-28T20:52:27.823Z,6.10
2022-11-28T20:54:29.646Z,6.00
2022-11-28T20:56:46.287Z,6.00
2022-11-28T20:58:58.272Z,6.10
2022-11-28T21:01:00.194Z,6.10
2022-11-28T21:03:01.924Z,6.10
2022-11-28T21:05:03.735Z,6.10
2022-11-28T21:07:05.431Z,6.10
2022-11-28T21:09:07.697Z,6.00
2022-11-28T21:11:25.587Z,6.10
2022-11-28T21:13:35.534Z,6.10
2022-11-28T21:15:42.422Z,6.00
2022-11-28T21:17:44.660Z,6.00
2022-11-28T21:19:46.580Z,6.00
2022-11-28T21:21:49.446Z,6.10
2022-11-28T21:23:51.254Z,6.00
2022-11-28T21:25:53.111Z,6.00
2022-11-28T21:27:54.871Z,6.00
2022-11-28T21:29:56.687Z,6.00
2022-11-28T21:31:58.474Z,6.00
2022-11-28T21:34:00.731Z,6.10
2022-11-28T21:36:03.768Z,6.00
2022-11-28T21:38:06.890Z,6.00
2022-11-28T21:40:09.231Z,6.00
2022-11-28T21:42:12.295Z,6.00
2022-11-28T21:44:16.839Z,6.00
2022-11-28T21:46:18.637Z,6.00
2022-11-28T21:48:20.353Z,6.00
2022-11-28T21:50:22.157Z,6.00
2022-11-28T21:52:24.626Z,6.00
2022-11-28T21:54:26.333Z,6.00
2022-11-28T21:56:28.237Z,6.00
2022-11-28T21:58:30.748Z,6.00
2022-11-28T22:00:52.744Z,6.00
2022-11-28T22:02:58.193Z,6.00
2022-11-28T22:05:05.236Z,5.90
2022-11-28T22:07:07.964Z,6.00
2022-11-28T22:09:10.119Z,6.00
2022-11-28T22:11:13.284Z,6.00
2022-11-28T22:13:15.169Z,5.90
2022-11-28T22:15:17.256Z,5.90
2022-11-28T22:17:18.997Z,5.90
2022-11-28T22:19:20.703Z,6.00
2022-11-28T22:21:50.671Z,5.90
2022-11-28T22:23:44.675Z,5.90
2022-11-28T22:25:55.184Z,5.90
2022-11-28T22:27:56.947Z,5.90
2022-11-28T22:29:58.672Z,5.90
2022-11-28T22:32:00.474Z,6.00
2022-11-28T22:34:02.209Z,6.00
2022-11-28T22:36:05.158Z,6.00
2022-11-28T22:38:06.877Z,6.00
2022-11-28T22:40:09.068Z,6.00
2022-11-28T22:42:10.822Z,6.00
2022-11-28T22:44:12.609Z,6.00
2022-11-28T22:46:15.634Z,6.00
2022-11-28T22:48:17.417Z,6.00
2022-11-28T22:50:19.291Z,6.00
2022-11-28T22:52:21.015Z,5.90
2022-11-28T22:54:22.751Z,6.00
2022-11-28T22:56:25.099Z,6.00
2022-11-28T22:58:26.834Z,6.00
2022-11-28T23:00:28.524Z,6.00
2022-11-28T23:02:30.376Z,6.00
2022-11-28T23:04:32.233Z,6.00
2022-11-28T23:06:34.706Z,5.90
2022-11-28T23:08:36.845Z,6.00
2022-11-28T23:10:38.614Z,6.00
2022-11-28T23:12:41.944Z,6.00
2022-11-28T23:14:43.985Z,6.10
2022-11-28T23:16:46.029Z,6.00
2022-11-28T23:18:49.347Z,6.00
2022-11-28T23:20:51.076Z,6.00
2022-11-28T23:22:52.875Z,6.00
2022-11-28T23:24:54.577Z,6.00
2022-11-28T23:26:56.294Z,6.00
2022-11-28T23:29:03.545Z,6.00
2022-11-28T23:31:12.466Z,6.00
2022-11-28T23:33:14.190Z,6.00
2022-11-28T23:35:15.980Z,6.00
2022-11-28T23:37:17.722Z,6.00
2022-11-28T23:39:21.986Z,6.00
2022-11-28T23:41:24.922Z,6.00
2022-11-28T23:43:26.622Z,6.00
2022-11-28T23:45:28.383Z,6.00
2022-11-28T23:47:30.125Z,6.10
2022-11-28T23:49:31.820Z,6.00
2022-11-28T23:51:33.819Z,6.00
2022-11-28T23:53:36.497Z,6.00
2022-11-28T23:55:38.074Z,6.00
2022-11-28T23:57:39.776Z,6.00
2022-11-28T23:59:41.495Z,6.00
